createdAt,value
2022-08-17T00:02:25.875Z,22.79
2022-08-17T00:04:50.730Z,22.76
2022-08-17T00:07:12.777Z,22.77
2022-08-17T00:09:34.596Z,22.75
2022-08-17T00:12:41.651Z,22.75
2022-08-17T00:14:38.627Z,22.75
2022-08-17T00:17:00.849Z,22.75
2022-08-17T00:19:25.669Z,22.73
2022-08-17T00:22:29.520Z,22.72
2022-08-17T00:24:30.964Z,22.73
2022-08-17T00:26:52.854Z,22.74
2022-08-17T00:29:19.674Z,22.77
2022-08-17T00:31:42.007Z,22.79
2022-08-17T00:34:06.329Z,22.78
2022-08-17T00:36:28.609Z,22.77
2022-08-17T00:38:51.411Z,22.75
2022-08-17T00:41:18.852Z,22.72
2022-08-17T00:44:03.751Z,22.70
2022-08-17T00:46:39.333Z,22.67
2022-08-17T00:49:01.158Z,22.63
2022-08-17T00:51:46.776Z,22.60
2022-08-17T00:54:29.786Z,22.61
2022-08-17T00:57:11.153Z,22.61
2022-08-17T00:59:39.779Z,22.60
2022-08-17T01:02:03.921Z,22.60
2022-08-17T01:04:29.086Z,22.58
2022-08-17T01:06:52.502Z,22.60
2022-08-17T01:09:16.960Z,22.59
2022-08-17T01:11:40.598Z,22.59
2022-08-17T01:14:03.132Z,22.59
2022-08-17T01:16:31.903Z,22.58
2022-08-17T01:19:00.277Z,22.56
2022-08-17T01:21:47.750Z,22.57
2022-08-17T01:24:10.008Z,22.52
2022-08-17T01:26:34.504Z,22.50
2022-08-17T01:28:56.589Z,22.46
2022-08-17T01:31:18.568Z,22.42
2022-08-17T01:33:40.919Z,22.40
2022-08-17T01:36:07.034Z,22.37
2022-08-17T01:38:31.956Z,22.34
2022-08-17T01:41:01.689Z,22.31
2022-08-17T01:43:31.146Z,22.27
2022-08-17T01:46:03.264Z,22.23
2022-08-17T01:48:33.516Z,22.20
2022-08-17T01:50:55.370Z,22.20
2022-08-17T01:53:34.985Z,22.18
2022-08-17T01:56:05.662Z,22.14
2022-08-17T01:58:27.725Z,22.12
2022-08-17T02:01:00.954Z,22.10
2022-08-17T02:03:25.300Z,22.07
2022-08-17T02:05:53.588Z,22.05
2022-08-17T02:08:20.144Z,22.01
2022-08-17T02:10:46.938Z,22.00
2022-08-17T02:13:09.308Z,21.98
2022-08-17T02:15:32.178Z,21.97
2022-08-17T02:17:54.832Z,21.95
2022-08-17T02:20:17.312Z,21.93
2022-08-17T02:23:03.197Z,21.92
2022-08-17T02:25:33.710Z,21.91
2022-08-17T02:27:55.632Z,21.90
2022-08-17T02:31:02.201Z,21.90
2022-08-17T02:32:59.794Z,21.87
2022-08-17T02:35:26.230Z,21.84
2022-08-17T02:37:55.375Z,21.79
2022-08-17T02:40:19.128Z,21.77
2022-08-17T02:42:58.463Z,21.74
2022-08-17T02:45:25.297Z,21.74
2022-08-17T02:47:47.622Z,21.72
2022-08-17T02:50:12.718Z,21.70
2022-08-17T02:52:42.945Z,21.69
2022-08-17T02:55:27.930Z,21.65
2022-08-17T02:57:51.616Z,21.62
2022-08-17T03:00:29.040Z,21.60
2022-08-17T03:02:52.140Z,21.57
2022-08-17T03:05:18.321Z,21.55
2022-08-17T03:07:40.387Z,21.54
2022-08-17T03:10:02.388Z,21.53
2022-08-17T03:12:24.462Z,21.52
2022-08-17T03:14:46.258Z,21.52
2022-08-17T03:17:10.098Z,21.48
2022-08-17T03:19:33.143Z,21.46
2022-08-17T03:21:55.618Z,21.44
2022-08-17T03:24:18.107Z,21.40
2022-08-17T03:26:39.934Z,21.37
2022-08-17T03:29:01.823Z,21.37
2022-08-17T03:31:23.772Z,21.36
2022-08-17T03:33:45.714Z,21.36
2022-08-17T03:36:08.278Z,21.37
2022-08-17T03:38:30.305Z,21.36
2022-08-17T03:41:01.854Z,21.35
2022-08-17T03:43:23.873Z,21.37
2022-08-17T03:46:04.105Z,21.41
2022-08-17T03:48:47.466Z,21.45
2022-08-17T03:51:38.205Z,21.47
2022-08-17T03:54:18.621Z,21.48
2022-08-17T03:56:44.117Z,21.47
2022-08-17T03:59:05.964Z,21.45
2022-08-17T04:01:28.101Z,21.43
2022-08-17T04:03:49.946Z,21.44
2022-08-17T04:06:11.873Z,21.46
2022-08-17T04:08:34.191Z,21.47
2022-08-17T04:10:57.445Z,21.48
2022-08-17T04:13:24.723Z,21.49
2022-08-17T04:15:49.235Z,21.48
2022-08-17T04:18:11.201Z,21.45
2022-08-17T04:20:33.764Z,21.44
2022-08-17T04:23:18.500Z,21.43
2022-08-17T04:25:50.125Z,21.41
2022-08-17T04:28:16.238Z,21.38
2022-08-17T04:30:39.623Z,21.37
2022-08-17T04:33:10.698Z,21.35
2022-08-17T04:35:36.666Z,21.31
2022-08-17T04:37:59.131Z,21.29
2022-08-17T04:40:40.946Z,21.30
2022-08-17T04:43:10.981Z,21.27
2022-08-17T04:45:33.899Z,21.25
2022-08-17T04:47:55.725Z,21.21
2022-08-17T04:50:17.908Z,21.21
2022-08-17T04:52:46.687Z,21.25
2022-08-17T04:55:09.781Z,21.29
2022-08-17T04:57:31.648Z,21.30
2022-08-17T05:00:01.784Z,21.33
2022-08-17T05:02:25.025Z,21.36
2022-08-17T05:04:46.918Z,21.38
2022-08-17T05:07:08.799Z,21.43
2022-08-17T05:09:31.053Z,21.44
2022-08-17T05:11:52.942Z,21.44
2022-08-17T05:14:17.329Z,21.44
2022-08-17T05:16:39.251Z,21.45
2022-08-17T05:19:02.608Z,21.46
2022-08-17T05:21:25.450Z,21.52
2022-08-17T05:23:50.338Z,21.56
2022-08-17T05:26:25.954Z,21.56
2022-08-17T05:28:49.243Z,21.58
2022-08-17T05:31:12.942Z,21.61
2022-08-17T05:33:44.329Z,21.59
2022-08-17T05:36:11.854Z,21.62
2022-08-17T05:38:53.739Z,21.64
2022-08-17T05:41:15.669Z,21.64
2022-08-17T05:43:42.998Z,21.64
2022-08-17T05:46:43.591Z,21.61
2022-08-17T05:49:08.568Z,21.57
2022-08-17T05:52:02.457Z,21.54
2022-08-17T05:54:40.226Z,21.48
2022-08-17T05:57:28.387Z,21.46
2022-08-17T06:00:30.597Z,21.44
2022-08-17T06:03:34.304Z,21.46
2022-08-17T06:06:31.598Z,21.49
2022-08-17T06:09:32.948Z,21.48
2022-08-17T06:12:38.633Z,21.44
2022-08-17T06:15:10.870Z,21.40
2022-08-17T06:17:34.569Z,21.41
2022-08-17T06:20:01.363Z,21.43
2022-08-17T06:22:33.145Z,21.45
2022-08-17T06:25:02.715Z,21.46
2022-08-17T06:27:35.928Z,21.52
2022-08-17T06:30:20.936Z,21.60
2022-08-17T06:32:47.453Z,21.63
2022-08-17T06:35:14.430Z,21.68
2022-08-17T06:38:37.887Z,21.76
2022-08-17T06:41:21.224Z,21.87
2022-08-17T06:43:56.751Z,22.00
2022-08-17T06:46:29.015Z,22.08
2022-08-17T06:49:33.248Z,22.13
2022-08-17T06:52:12.299Z,22.20
2022-08-17T06:55:19.514Z,22.27
2022-08-17T06:58:05.903Z,22.33
2022-08-17T07:00:47.158Z,22.43
2022-08-17T07:03:09.889Z,22.51
2022-08-17T07:05:50.467Z,22.60
2022-08-17T07:08:51.624Z,22.64
2022-08-17T07:11:23.606Z,22.68
2022-08-17T07:14:16.653Z,22.74
2022-08-17T07:16:56.233Z,22.79
2022-08-17T07:19:25.271Z,22.79
2022-08-17T07:22:15.891Z,22.78
2022-08-17T07:24:51.593Z,22.78
2022-08-17T07:27:22.732Z,22.82
2022-08-17T07:30:10.379Z,22.86
2022-08-17T07:32:51.090Z,22.86
2022-08-17T07:35:37.673Z,22.84
2022-08-17T07:38:28.398Z,22.77
2022-08-17T07:41:05.300Z,22.74
2022-08-17T07:43:40.977Z,22.71
2022-08-17T07:46:41.634Z,22.68
2022-08-17T07:49:03.638Z,22.69
2022-08-17T07:51:55.479Z,22.71
2022-08-17T07:54:32.725Z,22.72
2022-08-17T07:57:25.402Z,22.75
2022-08-17T08:00:01.455Z,22.77
2022-08-17T08:02:31.127Z,22.76
2022-08-17T08:05:13.203Z,22.75
2022-08-17T08:07:50.531Z,22.73
2022-08-17T08:10:27.913Z,22.71
2022-08-17T08:13:24.459Z,22.73
2022-08-17T08:15:54.097Z,22.73
2022-08-17T08:18:38.759Z,22.77
2022-08-17T08:21:21.960Z,22.74
2022-08-17T08:24:07.155Z,22.65
2022-08-17T08:26:47.593Z,22.53
2022-08-17T08:29:34.093Z,22.37
2022-08-17T08:32:11.778Z,22.15
2022-08-17T08:35:13.988Z,21.93
2022-08-17T08:37:43.677Z,21.75
2022-08-17T08:40:56.357Z,21.68
2022-08-17T08:43:36.320Z,21.67
2022-08-17T08:46:24.557Z,21.70
2022-08-17T08:49:11.844Z,21.76
2022-08-17T08:51:55.736Z,21.87
2022-08-17T08:54:38.630Z,21.91
2022-08-17T09:00:24.811Z,22.28
2022-08-17T09:02:58.862Z,22.59
2022-08-17T09:05:56.028Z,22.86
2022-08-17T09:08:45.881Z,23.08
2022-08-17T09:11:23.734Z,23.32
2022-08-17T09:14:28.416Z,23.53
2022-08-17T09:17:12.902Z,23.83
2022-08-17T09:19:48.078Z,24.09
2022-08-17T09:22:32.564Z,24.25
2022-08-17T09:25:03.310Z,24.24
2022-08-17T09:28:00.777Z,24.21
2022-08-17T09:30:25.152Z,24.24
2022-08-17T09:32:56.288Z,24.25
2022-08-17T09:35:36.539Z,24.27
2022-08-17T09:38:19.699Z,24.22
2022-08-17T09:40:57.205Z,24.20
2022-08-17T09:43:46.660Z,24.17
2022-08-17T09:46:18.169Z,24.14
2022-08-17T09:48:57.560Z,24.12
2022-08-17T09:51:55.160Z,24.11
2022-08-17T09:54:40.680Z,24.07
2022-08-17T09:57:29.283Z,24.02
2022-08-17T10:00:16.969Z,23.99
2022-08-17T10:03:16.481Z,23.97
2022-08-17T10:06:00.514Z,24.01
2022-08-17T10:08:55.203Z,24.07
2022-08-17T10:11:53.951Z,24.07
2022-08-17T10:14:37.231Z,24.10
2022-08-17T10:17:33.047Z,24.09
2022-08-17T10:20:15.360Z,24.10
2022-08-17T10:23:01.978Z,24.08
2022-08-17T10:25:59.514Z,24.04
2022-08-17T10:28:38.981Z,23.97
2022-08-17T10:34:41.788Z,23.81
2022-08-17T10:37:40.645Z,23.72
2022-08-17T10:40:36.335Z,23.64
2022-08-17T10:43:04.583Z,23.56
2022-08-17T10:45:33.961Z,23.47
2022-08-17T10:48:07.397Z,23.41
2022-08-17T10:51:00.262Z,23.36
2022-08-17T10:53:49.431Z,23.30
2022-08-17T10:56:14.293Z,23.25
2022-08-17T10:58:59.687Z,23.18
2022-08-17T11:02:03.936Z,23.11
2022-08-17T11:05:08.909Z,23.08
2022-08-17T11:07:55.067Z,23.01
2022-08-17T11:11:12.415Z,22.94
2022-08-17T11:13:55.988Z,22.86
2022-08-17T11:16:47.932Z,22.83
2022-08-17T11:19:28.798Z,22.77
2022-08-17T11:23:04.859Z,22.73
2022-08-17T11:25:47.077Z,22.65
2022-08-17T11:28:23.570Z,22.61
2022-08-17T11:30:53.515Z,22.60
2022-08-17T11:33:38.097Z,22.62
2022-08-17T11:36:34.254Z,22.64
2022-08-17T11:39:14.851Z,22.67
2022-08-17T11:41:51.073Z,22.68
2022-08-17T11:44:52.538Z,22.75
2022-08-17T11:48:16.144Z,22.78
2022-08-17T11:51:17.609Z,22.80
2022-08-17T11:53:39.416Z,22.83
2022-08-17T11:56:08.203Z,22.86
2022-08-17T11:58:29.925Z,22.86
2022-08-17T12:01:00.775Z,22.84
2022-08-17T12:03:31.871Z,22.84
2022-08-17T12:06:11.122Z,22.84
2022-08-17T12:08:45.357Z,22.82
2022-08-17T12:11:16.574Z,22.83
2022-08-17T12:14:00.639Z,22.86
2022-08-17T12:16:22.661Z,22.94
2022-08-17T12:18:59.285Z,23.04
2022-08-17T12:21:28.066Z,23.10
2022-08-17T12:24:06.441Z,23.16
2022-08-17T12:26:33.587Z,23.19
2022-08-17T12:29:01.828Z,23.24
2022-08-17T12:31:34.384Z,23.28
2022-08-17T12:33:56.972Z,23.29
2022-08-17T12:36:28.414Z,23.25
2022-08-17T12:39:13.999Z,23.16
2022-08-17T12:41:47.298Z,23.08
2022-08-17T12:44:50.303Z,23.03
2022-08-17T12:47:22.680Z,23.02
2022-08-17T12:49:52.380Z,22.97
2022-08-17T12:52:25.022Z,22.88
2022-08-17T12:54:52.538Z,22.79
2022-08-17T12:57:24.433Z,22.71
2022-08-17T12:59:58.905Z,22.59
2022-08-17T13:02:30.180Z,22.52
2022-08-17T13:04:52.138Z,22.47
2022-08-17T13:07:28.420Z,22.45
2022-08-17T13:09:51.429Z,22.41
2022-08-17T13:12:13.258Z,22.37
2022-08-17T13:14:35.414Z,22.35
2022-08-17T13:17:09.701Z,22.30
2022-08-17T13:19:40.785Z,22.29
2022-08-17T13:22:09.506Z,22.30
2022-08-17T13:24:38.235Z,22.29
2022-08-17T13:27:07.928Z,22.22
2022-08-17T13:29:55.587Z,22.13
2022-08-17T13:32:47.197Z,22.06
2022-08-17T13:35:50.310Z,22.06
2022-08-17T13:38:34.740Z,22.05
2022-08-17T13:40:56.553Z,22.06
2022-08-17T13:43:45.211Z,22.06
2022-08-17T13:46:31.244Z,22.02
2022-08-17T13:49:10.026Z,22.05
2022-08-17T13:51:52.976Z,22.17
2022-08-17T13:54:37.009Z,22.23
2022-08-17T13:57:22.850Z,22.28
2022-08-17T13:59:55.125Z,22.35
2022-08-17T14:02:20.792Z,22.45
2022-08-17T14:04:46.081Z,22.55
2022-08-17T14:07:15.478Z,22.65
2022-08-17T14:09:52.597Z,22.70
2022-08-17T14:12:20.039Z,22.70
2022-08-17T14:14:43.364Z,22.64
2022-08-17T14:17:05.904Z,22.64
2022-08-17T14:19:29.886Z,22.58
2022-08-17T14:21:56.496Z,22.55
2022-08-17T14:24:35.225Z,22.52
2022-08-17T14:26:59.863Z,22.47
2022-08-17T14:29:24.597Z,22.42
2022-08-17T14:31:53.403Z,22.39
2022-08-17T14:34:16.807Z,22.42
2022-08-17T14:36:48.163Z,22.42
2022-08-17T14:39:12.678Z,22.40
2022-08-17T14:41:35.418Z,22.35
2022-08-17T14:43:57.701Z,22.35
2022-08-17T14:46:20.347Z,22.36
2022-08-17T14:48:42.481Z,22.36
2022-08-17T14:51:05.593Z,22.39
2022-08-17T14:53:27.453Z,22.40
2022-08-17T14:55:51.467Z,22.41
2022-08-17T14:58:13.532Z,22.42
2022-08-17T15:00:35.557Z,22.45
2022-08-17T15:03:00.996Z,22.50
2022-08-17T15:05:27.423Z,22.52
2022-08-17T15:07:49.650Z,22.53
2022-08-17T15:10:14.636Z,22.59
2022-08-17T15:12:37.027Z,22.62
2022-08-17T15:15:00.592Z,22.63
2022-08-17T15:17:23.319Z,22.65
2022-08-17T15:19:45.464Z,22.65
2022-08-17T15:22:18.632Z,22.63
2022-08-17T15:24:40.493Z,22.53
2022-08-17T15:27:02.391Z,22.50
2022-08-17T15:29:24.377Z,22.51
2022-08-17T15:31:46.260Z,22.52
2022-08-17T15:34:08.409Z,22.51
2022-08-17T15:36:32.785Z,22.52
2022-08-17T15:38:54.625Z,22.48
2022-08-17T15:41:18.449Z,22.43
2022-08-17T15:43:40.956Z,22.41
2022-08-17T15:46:07.032Z,22.42
2022-08-17T15:48:43.952Z,22.43
2022-08-17T15:51:06.543Z,22.41
2022-08-17T15:53:28.372Z,22.41
2022-08-17T15:55:50.215Z,22.43
2022-08-17T15:58:14.246Z,22.47
2022-08-17T16:00:49.432Z,22.56
2022-08-17T16:03:58.071Z,22.69
2022-08-17T16:06:07.808Z,22.96
2022-08-17T16:08:31.802Z,23.17
2022-08-17T16:10:55.404Z,23.31
2022-08-17T16:13:19.523Z,23.36
2022-08-17T16:15:41.529Z,23.37
2022-08-17T16:18:05.072Z,23.33
2022-08-17T16:20:27.796Z,23.28
2022-08-17T16:22:50.891Z,23.23
2022-08-17T16:25:21.384Z,23.21
2022-08-17T16:27:43.908Z,23.22
2022-08-17T16:30:09.783Z,23.19
2022-08-17T16:32:33.570Z,23.20
2022-08-17T16:34:56.093Z,23.15
2022-08-17T16:37:18.924Z,23.12
2022-08-17T16:39:41.377Z,23.11
2022-08-17T16:42:05.498Z,23.10
2022-08-17T16:44:30.399Z,23.05
2022-08-17T16:46:52.436Z,22.98
2022-08-17T16:49:36.103Z,22.92
2022-08-17T16:52:03.029Z,22.85
2022-08-17T16:54:24.897Z,22.80
2022-08-17T16:56:46.751Z,22.76
2022-08-17T16:59:21.128Z,22.71
2022-08-17T17:01:53.780Z,22.62
2022-08-17T17:04:19.184Z,22.58
2022-08-17T17:07:17.077Z,22.54
2022-08-17T17:09:39.569Z,22.48
2022-08-17T17:12:17.782Z,22.44
2022-08-17T17:14:46.555Z,22.42
2022-08-17T17:17:34.626Z,22.40
2022-08-17T17:20:10.301Z,22.38
2022-08-17T17:22:49.400Z,22.32
2022-08-17T17:25:20.333Z,22.27
2022-08-17T17:27:51.353Z,22.22
2022-08-17T17:30:24.453Z,22.23
2022-08-17T17:33:39.126Z,22.33
2022-08-17T17:36:08.115Z,22.40
2022-08-17T17:38:47.412Z,22.50
2022-08-17T17:41:25.828Z,22.59
2022-08-17T17:43:58.127Z,22.64
2022-08-17T17:46:33.273Z,22.63
2022-08-17T17:48:55.419Z,22.53
2022-08-17T17:52:09.495Z,22.39
2022-08-17T17:54:29.549Z,22.23
2022-08-17T17:57:15.274Z,22.11
2022-08-17T17:59:45.416Z,22.02
2022-08-17T18:02:53.163Z,22.00
2022-08-17T18:05:36.689Z,21.95
2022-08-17T18:08:32.122Z,21.92
2022-08-17T18:11:42.069Z,21.81
2022-08-17T18:14:29.040Z,21.73
2022-08-17T18:17:00.391Z,21.72
2022-08-17T18:19:25.758Z,21.67
2022-08-17T18:21:54.912Z,21.62
2022-08-17T18:24:34.568Z,21.56
2022-08-17T18:27:08.261Z,21.58
2022-08-17T18:29:40.584Z,21.56
2022-08-17T18:32:33.253Z,21.58
2022-08-17T18:35:10.601Z,21.56
2022-08-17T18:37:48.885Z,21.53
2022-08-17T18:40:16.921Z,21.48
2022-08-17T18:42:38.974Z,21.45
2022-08-17T18:45:01.009Z,21.44
2022-08-17T18:47:29.772Z,21.45
2022-08-17T18:50:14.612Z,21.44
2022-08-17T18:52:36.500Z,21.42
2022-08-17T18:55:19.886Z,21.38
2022-08-17T18:57:44.697Z,21.35
2022-08-17T19:00:15.516Z,21.32
2022-08-17T19:02:52.929Z,21.28
2022-08-17T19:05:36.668Z,21.23
2022-08-17T19:08:36.034Z,21.15
2022-08-17T19:11:21.314Z,21.12
2022-08-17T19:13:51.616Z,21.04
2022-08-17T19:16:31.793Z,20.96
2022-08-17T19:19:11.461Z,20.90
2022-08-17T19:21:40.294Z,20.87
2022-08-17T19:24:33.516Z,20.83
2022-08-17T19:27:07.931Z,20.82
2022-08-17T19:30:01.709Z,20.81
2022-08-17T19:32:34.924Z,20.78
2022-08-17T19:34:57.890Z,20.77
2022-08-17T19:37:49.587Z,20.74
2022-08-17T19:40:51.081Z,20.70
2022-08-17T19:43:17.629Z,20.64
2022-08-17T19:46:06.123Z,20.59
2022-08-17T19:48:48.604Z,20.56
2022-08-17T19:51:24.819Z,20.55
2022-08-17T19:54:07.412Z,20.53
2022-08-17T19:57:02.880Z,20.52
2022-08-17T19:59:53.054Z,20.51
2022-08-17T20:02:41.801Z,20.52
2022-08-17T20:05:16.109Z,20.53
2022-08-17T20:08:22.068Z,20.50
2022-08-17T20:10:55.584Z,20.44
2022-08-17T20:13:33.466Z,20.39
2022-08-17T20:15:55.849Z,20.37
2022-08-17T20:18:48.632Z,20.39
2022-08-17T20:21:23.469Z,20.28
2022-08-17T20:23:57.952Z,20.26
2022-08-17T20:26:34.267Z,20.24
2022-08-17T20:29:14.343Z,20.24
2022-08-17T20:31:40.801Z,20.22
2022-08-17T20:34:39.661Z,20.20
2022-08-17T20:37:28.150Z,20.18
2022-08-17T20:39:49.962Z,20.16
2022-08-17T20:42:31.575Z,20.16
2022-08-17T20:45:21.539Z,20.15
2022-08-17T20:48:36.076Z,20.12
2022-08-17T20:51:09.743Z,20.04
2022-08-17T20:53:46.687Z,20.00
2022-08-17T20:56:08.612Z,19.93
2022-08-17T20:58:31.048Z,19.85
2022-08-17T21:00:56.372Z,19.79
2022-08-17T21:03:25.040Z,19.77
2022-08-17T21:06:25.741Z,19.76
2022-08-17T21:09:29.972Z,19.75
2022-08-17T21:12:04.392Z,19.73
2022-08-17T21:14:56.131Z,19.72
2022-08-17T21:17:46.644Z,19.71
2022-08-17T21:20:40.125Z,19.69
2022-08-17T21:23:26.426Z,19.66
2022-08-17T21:26:33.141Z,19.60
2022-08-17T21:29:30.906Z,19.58
2022-08-17T21:32:05.317Z,19.53
2022-08-17T21:34:37.068Z,19.52
2022-08-17T21:37:19.994Z,19.48
2022-08-17T21:39:42.411Z,19.44
2022-08-17T21:42:06.629Z,19.43
2022-08-17T21:44:41.628Z,19.43
2022-08-17T21:47:40.155Z,19.39
2022-08-17T21:50:23.480Z,19.36
2022-08-17T21:52:45.994Z,19.33
2022-08-17T21:55:28.245Z,19.32
2022-08-17T21:57:52.986Z,19.29
2022-08-17T22:00:33.414Z,19.24
2022-08-17T22:03:01.903Z,19.24
2022-08-17T22:05:33.014Z,19.25
2022-08-17T22:08:19.224Z,19.27
2022-08-17T22:10:50.461Z,19.31
2022-08-17T22:13:18.311Z,19.35
2022-08-17T22:15:45.218Z,19.36
2022-08-17T22:18:22.130Z,19.39
2022-08-17T22:20:44.141Z,19.40
2022-08-17T22:23:32.666Z,19.44
2022-08-17T22:26:04.891Z,19.46
2022-08-17T22:28:54.052Z,19.46
2022-08-17T22:31:21.132Z,19.45
2022-08-17T22:34:12.501Z,19.56
2022-08-17T22:36:42.124Z,19.52
2022-08-17T22:39:08.503Z,19.53
2022-08-17T22:42:00.977Z,19.54
2022-08-17T22:44:48.782Z,19.57
2022-08-17T22:47:17.093Z,19.59
2022-08-17T22:50:01.790Z,19.64
2022-08-17T22:53:10.653Z,19.65
2022-08-17T22:55:52.493Z,19.65
2022-08-17T22:58:43.494Z,19.65
2022-08-17T23:01:33.318Z,19.64
2022-08-17T23:04:08.966Z,19.60
2022-08-17T23:06:33.926Z,19.62
2022-08-17T23:08:56.679Z,19.63
2022-08-17T23:11:18.622Z,19.64
2022-08-17T23:13:40.915Z,19.64
2022-08-17T23:16:03.808Z,19.60
2022-08-17T23:18:27.358Z,19.59
2022-08-17T23:20:49.257Z,19.60
2022-08-17T23:23:14.633Z,19.61
2022-08-17T23:25:37.125Z,19.65
2022-08-17T23:28:03.776Z,19.66
2022-08-17T23:30:27.223Z,19.67
2022-08-17T23:32:53.374Z,19.69
2022-08-17T23:35:16.643Z,19.70
2022-08-17T23:37:39.166Z,19.73
2022-08-17T23:40:00.993Z,19.78
2022-08-17T23:42:23.241Z,19.80
2022-08-17T23:44:45.088Z,19.80
2022-08-17T23:47:07.801Z,19.81
2022-08-17T23:49:31.293Z,19.81
2022-08-17T23:51:55.870Z,19.82
2022-08-17T23:54:26.565Z,19.81
2022-08-17T23:56:48.600Z,19.82
2022-08-17T23:59:11.393Z,19.86
